createdAt,value
2023-05-18T00:00:31.672Z,13.40
2023-05-18T00:05:34.684Z,13.35
2023-05-18T00:10:38.046Z,13.32
2023-05-18T00:15:39.927Z,13.27
2023-05-18T00:20:43.831Z,13.25
2023-05-18T00:25:45.783Z,13.22
2023-05-18T00:30:47.774Z,13.19
2023-05-18T00:35:49.766Z,13.14
2023-05-18T00:40:51.695Z,13.09
2023-05-18T00:45:53.701Z,13.06
2023-05-18T00:50:56.110Z,13.04
2023-05-18T00:55:58.702Z,12.91
2023-05-18T01:01:02.954Z,12.77
2023-05-18T01:06:06.852Z,12.65
2023-05-18T01:11:23.711Z,12.61
2023-05-18T01:16:34.296Z,12.51
2023-05-18T01:22:04.295Z,12.40
2023-05-18T01:27:08.248Z,12.32
2023-05-18T01:32:10.847Z,12.32
2023-05-18T01:37:12.883Z,12.32
2023-05-18T01:42:24.433Z,12.31
2023-05-18T01:47:30.642Z,12.32
2023-05-18T01:52:44.676Z,12.30
2023-05-18T01:57:49.996Z,12.25
2023-05-18T02:02:53.216Z,12.23
2023-05-18T02:07:55.184Z,12.21
2023-05-18T02:12:57.235Z,12.12
2023-05-18T02:17:59.330Z,12.02
2023-05-18T02:23:01.327Z,11.96
2023-05-18T02:28:03.650Z,11.88
2023-05-18T02:33:05.688Z,11.63
2023-05-18T02:38:07.591Z,11.26
2023-05-18T02:43:09.697Z,11.07
2023-05-18T02:48:11.619Z,11.08
2023-05-18T02:53:13.646Z,11.18
2023-05-18T02:58:16.268Z,11.15
2023-05-18T03:03:36.059Z,11.03
2023-05-18T03:08:38.030Z,11.04
2023-05-18T03:13:40.057Z,11.05
2023-05-18T03:18:42.381Z,11.04
2023-05-18T03:23:45.533Z,11.01
2023-05-18T03:28:47.471Z,11.01
2023-05-18T03:33:50.295Z,10.86
2023-05-18T03:38:52.257Z,11.01
2023-05-18T03:43:54.255Z,10.98
2023-05-18T03:48:58.076Z,10.99
2023-05-18T03:54:08.286Z,10.93
2023-05-18T03:59:11.254Z,10.90
2023-05-18T04:04:18.190Z,10.89
2023-05-18T04:09:21.948Z,10.98
2023-05-18T04:14:24.887Z,11.06
2023-05-18T04:19:27.006Z,11.11
2023-05-18T04:24:28.963Z,11.18
2023-05-18T04:29:31.201Z,11.25
2023-05-18T04:34:38.426Z,11.24
2023-05-18T04:39:42.409Z,11.23
2023-05-18T04:44:49.000Z,11.26
2023-05-18T04:49:54.451Z,11.26
2023-05-18T04:54:56.654Z,11.32
2023-05-18T04:59:58.742Z,11.42
2023-05-18T05:05:00.824Z,11.56
2023-05-18T05:10:04.148Z,11.67
2023-05-18T05:15:06.676Z,11.71
2023-05-18T05:20:09.223Z,11.90
2023-05-18T05:25:11.815Z,11.98
2023-05-18T05:30:14.474Z,12.07
2023-05-18T05:35:18.362Z,12.19
2023-05-18T05:40:21.946Z,12.28
2023-05-18T05:45:28.631Z,12.34
2023-05-18T05:50:35.299Z,12.41
2023-05-18T05:55:41.436Z,12.54
2023-05-18T06:00:47.521Z,12.71
2023-05-18T06:05:50.353Z,12.93
2023-05-18T06:10:55.709Z,13.20
2023-05-18T06:15:58.880Z,13.48
2023-05-18T06:21:01.436Z,13.64
2023-05-18T06:26:04.334Z,13.84
2023-05-18T06:31:06.581Z,14.06
2023-05-18T06:36:20.490Z,14.14
2023-05-18T06:41:22.530Z,14.35
2023-05-18T06:46:26.640Z,14.53
2023-05-18T06:51:43.993Z,14.74
2023-05-18T06:56:47.354Z,14.77
2023-05-18T07:01:50.722Z,14.78
2023-05-18T07:06:56.038Z,14.78
2023-05-18T07:11:58.035Z,15.00
2023-05-18T07:16:59.950Z,15.27
2023-05-18T07:22:01.966Z,15.55
2023-05-18T07:27:04.194Z,15.76
2023-05-18T07:32:06.221Z,16.01
2023-05-18T07:37:08.396Z,16.19
2023-05-18T07:42:11.374Z,16.34
2023-05-18T07:47:13.385Z,16.37
2023-05-18T07:52:15.391Z,16.57
2023-05-18T07:57:17.380Z,16.89
2023-05-18T08:02:20.122Z,17.05
2023-05-18T08:07:22.389Z,16.99
2023-05-18T08:12:24.812Z,17.12
2023-05-18T08:17:26.902Z,16.98
2023-05-18T08:22:28.842Z,16.82
2023-05-18T08:27:31.215Z,16.77
2023-05-18T08:32:33.249Z,16.58
2023-05-18T08:37:38.351Z,16.40
2023-05-18T08:42:57.509Z,16.44
2023-05-18T08:48:01.693Z,16.55
2023-05-18T08:53:06.532Z,16.62
2023-05-18T08:58:09.551Z,16.68
2023-05-18T09:03:11.800Z,16.77
2023-05-18T09:08:14.151Z,16.93
2023-05-18T09:13:20.784Z,17.10
2023-05-18T09:18:24.951Z,17.22
2023-05-18T09:23:28.187Z,17.03
2023-05-18T09:28:37.148Z,16.83
2023-05-18T09:33:40.274Z,16.70
2023-05-18T09:38:46.313Z,16.75
2023-05-18T09:43:49.068Z,16.79
2023-05-18T09:48:53.251Z,16.90
2023-05-18T09:53:56.886Z,16.98
2023-05-18T09:59:07.903Z,17.07
2023-05-18T10:04:09.938Z,17.22
2023-05-18T10:09:16.682Z,17.37
2023-05-18T10:14:23.508Z,17.44
2023-05-18T10:19:26.402Z,17.64
2023-05-18T10:24:29.789Z,17.77
2023-05-18T10:29:34.077Z,17.76
2023-05-18T10:34:37.066Z,17.62
2023-05-18T10:39:45.323Z,17.65
2023-05-18T10:44:48.229Z,17.69
2023-05-18T10:49:50.646Z,17.83
2023-05-18T10:54:53.748Z,17.80
2023-05-18T10:59:55.880Z,17.83
2023-05-18T11:04:57.849Z,17.84
2023-05-18T11:10:01.904Z,18.05
2023-05-18T11:15:05.462Z,18.16
2023-05-18T11:20:11.932Z,18.30
2023-05-18T11:25:26.084Z,18.41
2023-05-18T11:30:29.189Z,18.52
2023-05-18T11:35:31.379Z,18.58
2023-05-18T11:40:47.116Z,18.78
2023-05-18T11:45:58.892Z,18.89
2023-05-18T11:51:01.545Z,18.92
2023-05-18T11:56:03.602Z,19.05
2023-05-18T12:01:06.889Z,19.04
2023-05-18T12:06:08.958Z,19.12
2023-05-18T12:11:13.626Z,19.31
2023-05-18T12:16:15.884Z,19.49
2023-05-18T12:21:22.389Z,19.39
2023-05-18T12:26:26.147Z,19.31
2023-05-18T12:31:28.461Z,19.27
2023-05-18T12:36:30.738Z,19.28
2023-05-18T12:41:32.622Z,19.36
2023-05-18T12:46:34.583Z,19.35
2023-05-18T12:51:38.401Z,19.31
2023-05-18T12:56:53.175Z,19.36
2023-05-18T13:01:56.755Z,19.43
2023-05-18T13:06:58.953Z,19.71
2023-05-18T13:12:07.584Z,19.88
2023-05-18T13:17:10.077Z,19.86
2023-05-18T13:22:15.702Z,19.79
2023-05-18T13:27:17.628Z,19.85
2023-05-18T13:32:19.547Z,19.84
2023-05-18T13:37:21.412Z,19.83
2023-05-18T13:42:23.477Z,19.75
2023-05-18T13:47:25.365Z,19.67
2023-05-18T13:52:27.424Z,19.55
2023-05-18T13:57:30.878Z,19.41
2023-05-18T14:02:32.798Z,19.39
2023-05-18T14:07:38.934Z,19.49
2023-05-18T14:12:43.987Z,19.54
2023-05-18T14:17:46.222Z,19.49
2023-05-18T14:22:48.269Z,19.44
2023-05-18T14:27:50.177Z,19.34
2023-05-18T14:32:52.244Z,19.28
2023-05-18T14:37:54.170Z,19.16
2023-05-18T14:42:56.087Z,19.13
2023-05-18T14:47:57.978Z,19.11
2023-05-18T14:52:59.977Z,19.05
2023-05-18T14:58:04.606Z,19.05
2023-05-18T15:03:06.766Z,19.03
2023-05-18T15:08:08.874Z,18.99
2023-05-18T15:13:10.878Z,19.03
2023-05-18T15:18:12.834Z,19.14
2023-05-18T15:23:14.842Z,19.04
2023-05-18T15:28:16.746Z,18.97
2023-05-18T15:33:18.940Z,18.86
2023-05-18T15:38:21.012Z,18.77
2023-05-18T15:43:24.127Z,18.71
2023-05-18T15:48:26.128Z,18.72
2023-05-18T15:53:28.084Z,18.67
2023-05-18T15:58:30.232Z,18.66
2023-05-18T16:03:32.377Z,18.60
2023-05-18T16:08:34.385Z,18.62
2023-05-18T16:13:36.361Z,18.69
2023-05-18T16:18:38.341Z,18.69
2023-05-18T16:23:40.323Z,18.62
2023-05-18T16:28:42.193Z,18.65
2023-05-18T16:33:44.104Z,18.71
2023-05-18T16:38:46.071Z,18.78
2023-05-18T16:43:48.073Z,18.81
2023-05-18T16:48:50.103Z,18.85
2023-05-18T16:53:52.868Z,18.90
2023-05-18T16:58:54.885Z,18.84
2023-05-18T17:03:57.446Z,18.80
2023-05-18T17:08:59.478Z,18.78
2023-05-18T17:14:01.705Z,18.70
2023-05-18T17:19:04.452Z,18.57
2023-05-18T17:24:06.749Z,18.43
2023-05-18T17:29:08.649Z,18.35
2023-05-18T17:34:10.587Z,18.27
2023-05-18T17:39:12.808Z,18.24
2023-05-18T17:44:14.728Z,18.19
2023-05-18T17:49:16.622Z,18.09
2023-05-18T17:54:18.558Z,18.05
2023-05-18T17:59:20.673Z,17.98
2023-05-18T18:04:22.817Z,17.93
2023-05-18T18:09:24.958Z,17.89
2023-05-18T18:14:26.856Z,17.90
2023-05-18T18:19:28.864Z,17.86
2023-05-18T18:24:30.921Z,17.80
2023-05-18T18:29:32.950Z,17.71
2023-05-18T18:34:34.884Z,17.63
2023-05-18T18:39:36.954Z,17.54
2023-05-18T18:44:38.862Z,17.45
2023-05-18T18:49:40.729Z,17.40
2023-05-18T18:54:42.699Z,17.35
2023-05-18T18:59:44.565Z,17.35
2023-05-18T19:04:46.482Z,17.35
2023-05-18T19:09:50.461Z,17.36
2023-05-18T19:14:52.329Z,17.33
2023-05-18T19:19:54.449Z,17.29
2023-05-18T19:24:56.651Z,17.28
2023-05-18T19:30:00.838Z,17.29
2023-05-18T19:35:04.363Z,17.27
2023-05-18T19:40:07.286Z,17.23
2023-05-18T19:45:09.602Z,17.15
2023-05-18T19:50:12.495Z,17.07
2023-05-18T19:55:14.517Z,17.02
2023-05-18T20:00:16.874Z,16.95
2023-05-18T20:05:19.034Z,16.88
2023-05-18T20:10:21.110Z,16.84
2023-05-18T20:15:23.124Z,16.79
2023-05-18T20:20:30.446Z,16.77
2023-05-18T20:25:35.323Z,16.79
2023-05-18T20:30:37.395Z,16.73
2023-05-18T20:35:39.625Z,16.72
2023-05-18T20:40:41.836Z,16.68
2023-05-18T20:45:49.296Z,16.63
2023-05-18T20:50:52.250Z,16.53
2023-05-18T20:55:54.413Z,16.46
2023-05-18T21:00:56.315Z,16.44
2023-05-18T21:05:58.445Z,16.43
2023-05-18T21:11:00.697Z,16.41
2023-05-18T21:16:02.718Z,16.38
2023-05-18T21:21:05.043Z,16.36
2023-05-18T21:26:06.919Z,16.27
2023-05-18T21:31:08.815Z,16.20
2023-05-18T21:36:10.709Z,16.17
2023-05-18T21:41:12.600Z,16.14
2023-05-18T21:46:14.501Z,16.10
2023-05-18T21:51:17.399Z,16.05
2023-05-18T21:56:19.360Z,16.04
2023-05-18T22:01:23.439Z,16.02
2023-05-18T22:06:25.427Z,15.94
2023-05-18T22:11:27.389Z,15.86
2023-05-18T22:16:29.239Z,15.77
2023-05-18T22:21:31.244Z,15.71
2023-05-18T22:26:33.126Z,15.69
2023-05-18T22:31:35.042Z,15.66
2023-05-18T22:36:37.077Z,15.65
2023-05-18T22:41:38.959Z,15.62
2023-05-18T22:46:40.978Z,15.58
2023-05-18T22:51:42.900Z,15.53
2023-05-18T22:56:44.789Z,15.48
2023-05-18T23:01:47.844Z,15.44
2023-05-18T23:06:50.948Z,15.44
2023-05-18T23:11:53.884Z,15.44
2023-05-18T23:16:58.396Z,15.41
2023-05-18T23:22:00.722Z,15.33
2023-05-18T23:27:02.614Z,15.30
2023-05-18T23:32:05.012Z,15.31
2023-05-18T23:37:10.698Z,15.30
2023-05-18T23:42:12.932Z,15.24
2023-05-18T23:47:16.113Z,15.20
2023-05-18T23:52:20.111Z,15.12
2023-05-18T23:57:25.150Z,15.01
